Tuesday, December 18, 2018, 12:15 PM EST
Back to Local

KDDH, Bennington Morse State Airport

Location: Bennington, VT, United States Lat: 42.883
Local Time: 12:15 PM EST (17:15 GMT) Lon: -73.25
Time Zone: US/Eastern Elev: 826 ft

Show me the last for .
Show Decoded

2018-12-18 11:54 METAR KDDH 181654Z AUTO 32007G19KT 10SM SCT038 M06/M14 A2998 RMK AO2 SLP161
                 T10561139 =
2018-12-18 10:54 METAR KDDH 181554Z AUTO 31008G14KT 270V350 10SM BKN038 M06/M14 A2998 RMK AO2
                 SLP163 T10561139 =
2018-12-18 09:54 METAR KDDH 181454Z AUTO 32008G19KT 10SM OVC041 M07/M14 A2999 RMK AO2 SLP167
                 T10671144 51025 =
2018-12-18 08:54 METAR KDDH 181354Z AUTO 31011G16KT 10SM OVC044 M07/M14 A2998 RMK AO2 SLP162
                 T10721139 =
2018-12-18 07:54 METAR KDDH 181254Z AUTO 31007G16KT 10SM OVC046 M08/M14 A2995 RMK AO2 SLP152
                 T10781144 =
2018-12-18 06:54 METAR KDDH 181154Z AUTO 32012G16KT 10SM CLR M08/M15 A2992 RMK AO2 SLP141 70009
                 T10781150 11033 21078 53032 =
2018-12-18 05:54 METAR KDDH 181054Z AUTO 31009G19KT 10SM FEW036 SCT049 M07/M14 A2988 RMK AO2
                 SLP129 T10721144 =
2018-12-18 04:54 METAR KDDH 180954Z AUTO 31012G21KT 10SM FEW038 OVC050 M07/M13 A2985 RMK AO2
                 SLP117 T10671133 =
2018-12-18 03:54 METAR KDDH 180854Z AUTO 29015G20KT 10SM BKN039 M07/M14 A2982 RMK AO2 SLP108
                 T10671139 51033 =
2018-12-18 02:54 METAR KDDH 180754Z AUTO 30012G23KT 10SM SCT041 BKN060 M06/M14 A2980 RMK AO2 PK
                 WND 33027/0715 SLP101 T10611139 =
2018-12-18 01:54 METAR KDDH 180654Z AUTO 34008G19KT 300V360 10SM OVC040 M05/M12 A2977 RMK AO2 PK
                 WND 31026/0555 SLP089 T10501122 =
2018-12-18 00:54 METAR KDDH 180554Z AUTO 32015G28KT 10SM SCT038 OVC049 M03/M12 A2972 RMK AO2 PK
                 WND 31028/0554 SNB0455E04 SLP073 P0000 60001 T10331122 10017 21033 53027 =
2018-12-17 23:54 METAR KDDH 180454Z AUTO 33011G25KT 10SM BKN033 OVC041 M02/M09 A2968 RMK AO2
                 SLP059 T10221094 400281022 =
2018-12-17 22:54 METAR KDDH 180354Z AUTO 30011G20KT 260V330 10SM FEW031 FEW038 OVC065 M01/M07
                 A2966 RMK AO2 SNE41 SLP051 P0000 T10061072 =
2018-12-17 22:03 METAR KDDH 180303Z AUTO 30008KT 6SM -SN FEW017 BKN035 OVC070 00/M03 A2964 RMK
                 AO2 P0000 T00001028 =
2018-12-17 21:54 METAR KDDH 180254Z AUTO 30010G17KT 2SM -SN SCT017 BKN027 OVC045 01/M03 A2964 RMK
                 AO2 SLP044 P0001 60001 T00061028 51004 =
2018-12-17 21:46 METAR KDDH 180246Z AUTO VRB06G16KT 2SM -SN FEW018 BKN025 OVC046 01/M03 A2964 RMK
                 AO2 P0001 T00061028 =
2018-12-17 21:13 METAR KDDH 180213Z AUTO 28011G15KT 9SM -SN FEW026 BKN034 OVC046 01/M03 A2964 RMK
                 AO2 P0000 T00111028 =
2018-12-17 20:54 METAR KDDH 180154Z AUTO 29008KT 8SM -SN BKN026 BKN042 OVC050 01/M02 A2964 RMK
                 AO2 SNB06 SLP043 P0000 T00111022 =
2018-12-17 19:54 METAR KDDH 180054Z AUTO 27008KT 10SM FEW028 BKN045 OVC070 02/M02 A2964 RMK AO2
                 SNB15E30 SLP044 P0000 T00171022 =
2018-12-17 18:54 METAR KDDH 172354Z AUTO VRB06KT 10SM OVC034 02/M03 A2963 RMK AO2 SLP040 60008
                 T00171028 10028 20017 51009 =
2018-12-17 17:54 METAR KDDH 172254Z AUTO 26007G17KT 9SM FEW037 SCT048 OVC065 02/M03 A2962 RMK AO2
                 SNB27E49 SLP037 P0000 T00221028 =
2018-12-17 16:54 METAR KDDH 172154Z AUTO 28008KT 9SM SCT030 OVC060 02/M02 A2961 RMK AO2 SNE51
                 SLP034 P0001 T00171022 =
2018-12-17 16:22 METAR KDDH 172122Z AUTO 28006KT 9SM -SN FEW022 BKN030 OVC060 02/M02 A2961 RMK
                 AO2 P0001 T00171017 =
2018-12-17 15:54 METAR KDDH 172054Z AUTO 32006KT 7SM -SN BKN028 OVC036 02/M01 A2960 RMK AO2
                 SNE21B45 SLP030 P0005 60007 T00171011 53006 =
2018-12-17 15:36 METAR KDDH 172036Z AUTO VRB05KT 10SM FEW027 BKN038 OVC050 02/M01 A2959 RMK AO2
                 SNE21 P0005 T00221011 =
2018-12-17 15:24 METAR KDDH 172024Z AUTO 27007G16KT 9SM FEW012 BKN028 OVC050 02/M01 A2959 RMK AO2
                 SNE21 P0005 T00221011 =
2018-12-17 15:16 METAR KDDH 172016Z AUTO 28010KT 3SM -SN BKN014 BKN020 OVC055 02/M01 A2958 RMK
                 AO2 P0005 T00171011 =
2018-12-17 15:04 METAR KDDH 172004Z AUTO 29005KT 1SM -SN BR BKN013 BKN020 OVC041 02/M01 A2958 RMK
                 AO2 P0002 T00171006 =
2018-12-17 14:54 METAR KDDH 171954Z AUTO 27009KT 1 3/4SM -SN SCT015 BKN029 OVC036 02/M01 A2958
                 RMK AO2 SNB40 SLP023 P0002 T00221011 =
2018-12-17 14:51 METAR KDDH 171951Z AUTO 27009KT 2SM -SN SCT015 BKN029 OVC050 02/M01 A2958 RMK
                 AO2 SNB40 P0002 =
2018-12-17 14:16 METAR KDDH 171916Z AUTO 26011G17KT 210V290 10SM FEW015 BKN037 OVC060 02/M01
                 A2957 RMK AO2 T00221006 =
2018-12-17 13:54 METAR KDDH 171854Z AUTO 27008KT 10SM BKN016 BKN020 OVC026 03/M01 A2957 RMK AO2
                 SLP018 T00281006 =
2018-12-17 13:29 METAR KDDH 171829Z AUTO VRB05KT 9SM OVC016 02/M01 A2957 RMK AO2 T00221006 =
2018-12-17 12:54 METAR KDDH 171754Z AUTO 23006KT 8SM BKN012 OVC019 02/M01 A2958 RMK AO2 SLP023
                 T00171006 10017 20006 58029 =
2018-12-17 12:32 METAR KDDH 171732Z AUTO 22005KT 8SM OVC013 02/M01 A2959 RMK AO2 T00171006 =

Support USWX by starting your Amazon purchase here.